sensor_id;sensor_type;location;lat;lon;timestamp;P1;durP1;ratioP1;P2;durP2;ratioP2
57828;SDS011;43657;52.698;6.314;2023-07-20T00:02:19;22.45;;;15.77;;
57828;SDS011;43657;52.698;6.314;2023-07-20T00:04:45;18.27;;;16.20;;
57828;SDS011;43657;52.698;6.314;2023-07-20T00:07:10;27.70;;;16.33;;
57828;SDS011;43657;52.698;6.314;2023-07-20T00:09:36;14.35;;;13.13;;
57828;SDS011;43657;52.698;6.314;2023-07-20T00:12:02;41.25;;;22.50;;
57828;SDS011;43657;52.698;6.314;2023-07-20T00:14:28;19.17;;;17.17;;
57828;SDS011;43657;52.698;6.314;2023-07-20T00:16:54;15.38;;;13.88;;
57828;SDS011;43657;52.698;6.314;2023-07-20T00:19:21;38.85;;;22.13;;
57828;SDS011;43657;52.698;6.314;2023-07-20T00:21:51;17.98;;;15.85;;
57828;SDS011;43657;52.698;6.314;2023-07-20T00:24:17;18.88;;;14.85;;
57828;SDS011;43657;52.698;6.314;2023-07-20T00:26:43;18.00;;;16.10;;
57828;SDS011;43657;52.698;6.314;2023-07-20T00:29:09;18.15;;;16.38;;
57828;SDS011;43657;52.698;6.314;2023-07-20T00:31:35;46.20;;;23.17;;
57828;SDS011;43657;52.698;6.314;2023-07-20T00:34:02;22.35;;;17.08;;
57828;SDS011;43657;52.698;6.314;2023-07-20T00:36:28;23.33;;;17.45;;
57828;SDS011;43657;52.698;6.314;2023-07-20T00:38:54;17.67;;;15.88;;
57828;SDS011;43657;52.698;6.314;2023-07-20T00:41:19;27.52;;;19.98;;
57828;SDS011;43657;52.698;6.314;2023-07-20T00:43:45;53.95;;;23.40;;
57828;SDS011;43657;52.698;6.314;2023-07-20T00:46:11;20.52;;;17.25;;
57828;SDS011;43657;52.698;6.314;2023-07-20T00:48:37;19.60;;;16.92;;
57828;SDS011;43657;52.698;6.314;2023-07-20T00:51:03;18.02;;;15.55;;
57828;SDS011;43657;52.698;6.314;2023-07-20T00:53:29;32.30;;;21.98;;
57828;SDS011;43657;52.698;6.314;2023-07-20T00:55:55;26.02;;;20.05;;
57828;SDS011;43657;52.698;6.314;2023-07-20T00:58:21;34.95;;;23.20;;
57828;SDS011;43657;52.698;6.314;2023-07-20T01:00:47;20.73;;;18.00;;
57828;SDS011;43657;52.698;6.314;2023-07-20T01:03:13;21.45;;;17.92;;
57828;SDS011;43657;52.698;6.314;2023-07-20T01:05:42;16.63;;;15.18;;
57828;SDS011;43657;52.698;6.314;2023-07-20T01:09:08;20.95;;;18.45;;
57828;SDS011;43657;52.698;6.314;2023-07-20T01:14:24;19.67;;;17.63;;
57828;SDS011;43657;52.698;6.314;2023-07-20T01:16:51;23.02;;;18.13;;
57828;SDS011;43657;52.698;6.314;2023-07-20T01:19:17;20.20;;;18.15;;
57828;SDS011;43657;52.698;6.314;2023-07-20T01:22:03;23.88;;;19.55;;
57828;SDS011;43657;52.698;6.314;2023-07-20T01:24:51;38.17;;;24.30;;
57828;SDS011;43657;52.698;6.314;2023-07-20T01:30:35;33.20;;;22.55;;
57828;SDS011;43657;52.698;6.314;2023-07-20T01:33:17;24.67;;;19.58;;
57828;SDS011;43657;52.698;6.314;2023-07-20T01:35:46;30.35;;;21.80;;
57828;SDS011;43657;52.698;6.314;2023-07-20T01:38:15;26.90;;;21.00;;
57828;SDS011;43657;52.698;6.314;2023-07-20T01:40:43;36.15;;;23.13;;
57828;SDS011;43657;52.698;6.314;2023-07-20T01:43:09;18.70;;;16.92;;
57828;SDS011;43657;52.698;6.314;2023-07-20T01:45:35;34.80;;;20.85;;
57828;SDS011;43657;52.698;6.314;2023-07-20T01:48:00;26.98;;;19.42;;
57828;SDS011;43657;52.698;6.314;2023-07-20T01:50:26;35.67;;;21.58;;
57828;SDS011;43657;52.698;6.314;2023-07-20T01:52:52;24.13;;;18.80;;
57828;SDS011;43657;52.698;6.314;2023-07-20T01:55:18;47.72;;;24.35;;
57828;SDS011;43657;52.698;6.314;2023-07-20T01:57:43;24.83;;;18.88;;
57828;SDS011;43657;52.698;6.314;2023-07-20T02:00:09;20.38;;;17.73;;
57828;SDS011;43657;52.698;6.314;2023-07-20T02:02:36;46.75;;;21.88;;
57828;SDS011;43657;52.698;6.314;2023-07-20T02:05:02;31.77;;;19.13;;
57828;SDS011;43657;52.698;6.314;2023-07-20T02:07:27;23.05;;;16.90;;
57828;SDS011;43657;52.698;6.314;2023-07-20T02:09:53;46.05;;;19.05;;
57828;SDS011;43657;52.698;6.314;2023-07-20T02:12:19;142.07;;;31.50;;
57828;SDS011;43657;52.698;6.314;2023-07-20T02:14:44;20.02;;;17.42;;
57828;SDS011;43657;52.698;6.314;2023-07-20T02:17:10;47.05;;;19.52;;
57828;SDS011;43657;52.698;6.314;2023-07-20T02:19:36;34.03;;;19.63;;
57828;SDS011;43657;52.698;6.314;2023-07-20T02:22:02;133.98;;;25.48;;
57828;SDS011;43657;52.698;6.314;2023-07-20T02:24:28;63.70;;;17.75;;
57828;SDS011;43657;52.698;6.314;2023-07-20T02:26:53;23.90;;;16.20;;
57828;SDS011;43657;52.698;6.314;2023-07-20T02:29:19;34.47;;;19.92;;
57828;SDS011;43657;52.698;6.314;2023-07-20T02:31:44;18.88;;;16.90;;
57828;SDS011;43657;52.698;6.314;2023-07-20T02:34:10;37.63;;;20.73;;
57828;SDS011;43657;52.698;6.314;2023-07-20T02:36:35;143.57;;;22.05;;
57828;SDS011;43657;52.698;6.314;2023-07-20T02:39:01;205.32;;;27.63;;
57828;SDS011;43657;52.698;6.314;2023-07-20T02:41:30;47.78;;;17.25;;
57828;SDS011;43657;52.698;6.314;2023-07-20T02:43:57;50.42;;;19.55;;
57828;SDS011;43657;52.698;6.314;2023-07-20T02:46:23;44.42;;;16.88;;
57828;SDS011;43657;52.698;6.314;2023-07-20T02:48:48;66.40;;;21.52;;
57828;SDS011;43657;52.698;6.314;2023-07-20T02:51:14;32.35;;;19.35;;
57828;SDS011;43657;52.698;6.314;2023-07-20T02:53:39;196.20;;;36.88;;
57828;SDS011;43657;52.698;6.314;2023-07-20T02:56:05;32.25;;;20.75;;
57828;SDS011;43657;52.698;6.314;2023-07-20T02:58:30;502.25;;;61.70;;
57828;SDS011;43657;52.698;6.314;2023-07-20T03:00:56;33.08;;;18.73;;
57828;SDS011;43657;52.698;6.314;2023-07-20T03:03:21;132.60;;;25.65;;
57828;SDS011;43657;52.698;6.314;2023-07-20T03:05:47;303.17;;;44.50;;
57828;SDS011;43657;52.698;6.314;2023-07-20T03:08:19;36.47;;;20.70;;
57828;SDS011;43657;52.698;6.314;2023-07-20T03:10:44;39.90;;;18.67;;
57828;SDS011;43657;52.698;6.314;2023-07-20T03:13:10;41.00;;;24.75;;
57828;SDS011;43657;52.698;6.314;2023-07-20T03:15:36;61.05;;;23.58;;
57828;SDS011;43657;52.698;6.314;2023-07-20T03:18:01;57.58;;;19.08;;
57828;SDS011;43657;52.698;6.314;2023-07-20T03:20:29;101.30;;;21.33;;
57828;SDS011;43657;52.698;6.314;2023-07-20T03:22:54;73.78;;;17.95;;
57828;SDS011;43657;52.698;6.314;2023-07-20T03:25:20;74.45;;;19.63;;
57828;SDS011;43657;52.698;6.314;2023-07-20T03:27:46;92.60;;;18.80;;
57828;SDS011;43657;52.698;6.314;2023-07-20T03:30:11;88.53;;;21.98;;
57828;SDS011;43657;52.698;6.314;2023-07-20T03:32:37;42.53;;;16.75;;
57828;SDS011;43657;52.698;6.314;2023-07-20T03:35:03;161.88;;;23.67;;
57828;SDS011;43657;52.698;6.314;2023-07-20T03:37:29;41.92;;;14.88;;
57828;SDS011;43657;52.698;6.314;2023-07-20T03:39:55;24.60;;;11.85;;
57828;SDS011;43657;52.698;6.314;2023-07-20T03:42:20;59.38;;;20.65;;
57828;SDS011;43657;52.698;6.314;2023-07-20T03:44:46;37.95;;;19.20;;
57828;SDS011;43657;52.698;6.314;2023-07-20T03:47:11;37.92;;;18.63;;
57828;SDS011;43657;52.698;6.314;2023-07-20T03:49:37;49.88;;;19.48;;
57828;SDS011;43657;52.698;6.314;2023-07-20T03:52:03;51.55;;;18.25;;
57828;SDS011;43657;52.698;6.314;2023-07-20T03:54:29;28.90;;;19.88;;
57828;SDS011;43657;52.698;6.314;2023-07-20T03:56:55;33.20;;;18.52;;
57828;SDS011;43657;52.698;6.314;2023-07-20T03:59:20;71.93;;;18.02;;
57828;SDS011;43657;52.698;6.314;2023-07-20T04:01:46;378.10;;;49.40;;
57828;SDS011;43657;52.698;6.314;2023-07-20T04:04:13;66.25;;;23.80;;
57828;SDS011;43657;52.698;6.314;2023-07-20T04:06:40;23.58;;;18.50;;
57828;SDS011;43657;52.698;6.314;2023-07-20T04:09:09;78.50;;;33.67;;
57828;SDS011;43657;52.698;6.314;2023-07-20T04:11:36;70.25;;;28.25;;
57828;SDS011;43657;52.698;6.314;2023-07-20T04:14:01;104.68;;;29.98;;
57828;SDS011;43657;52.698;6.314;2023-07-20T04:16:27;58.72;;;25.00;;
57828;SDS011;43657;52.698;6.314;2023-07-20T04:18:54;47.85;;;20.30;;
57828;SDS011;43657;52.698;6.314;2023-07-20T04:21:21;35.45;;;20.73;;
57828;SDS011;43657;52.698;6.314;2023-07-20T04:23:47;19.65;;;17.65;;
57828;SDS011;43657;52.698;6.314;2023-07-20T04:26:13;190.30;;;31.85;;
57828;SDS011;43657;52.698;6.314;2023-07-20T04:28:40;154.65;;;26.38;;
57828;SDS011;43657;52.698;6.314;2023-07-20T04:31:11;141.75;;;35.88;;
57828;SDS011;43657;52.698;6.314;2023-07-20T04:33:39;21.38;;;18.13;;
57828;SDS011;43657;52.698;6.314;2023-07-20T04:36:05;27.35;;;21.08;;
57828;SDS011;43657;52.698;6.314;2023-07-20T04:38:32;24.67;;;22.02;;
57828;SDS011;43657;52.698;6.314;2023-07-20T04:40:57;53.90;;;24.33;;
57828;SDS011;43657;52.698;6.314;2023-07-20T04:43:23;47.20;;;25.33;;
57828;SDS011;43657;52.698;6.314;2023-07-20T04:45:49;30.98;;;25.10;;
57828;SDS011;43657;52.698;6.314;2023-07-20T04:48:16;40.20;;;24.92;;
57828;SDS011;43657;52.698;6.314;2023-07-20T04:50:42;150.32;;;30.30;;
57828;SDS011;43657;52.698;6.314;2023-07-20T04:53:10;73.95;;;24.63;;
57828;SDS011;43657;52.698;6.314;2023-07-20T04:55:39;17.05;;;13.07;;
57828;SDS011;43657;52.698;6.314;2023-07-20T04:58:05;14.15;;;12.73;;
57828;SDS011;43657;52.698;6.314;2023-07-20T05:00:32;24.17;;;15.13;;
57828;SDS011;43657;52.698;6.314;2023-07-20T05:02:58;20.38;;;13.55;;
57828;SDS011;43657;52.698;6.314;2023-07-20T05:05:24;11.20;;;10.00;;
57828;SDS011;43657;52.698;6.314;2023-07-20T05:07:49;19.23;;;12.23;;
57828;SDS011;43657;52.698;6.314;2023-07-20T05:10:15;19.23;;;11.75;;
57828;SDS011;43657;52.698;6.314;2023-07-20T05:12:41;9.88;;;8.85;;
57828;SDS011;43657;52.698;6.314;2023-07-20T05:15:07;7.95;;;7.25;;
57828;SDS011;43657;52.698;6.314;2023-07-20T05:17:33;8.02;;;7.22;;
57828;SDS011;43657;52.698;6.314;2023-07-20T05:19:58;9.25;;;7.18;;
57828;SDS011;43657;52.698;6.314;2023-07-20T05:22:24;7.28;;;6.57;;
57828;SDS011;43657;52.698;6.314;2023-07-20T05:24:50;6.65;;;6.05;;
57828;SDS011;43657;52.698;6.314;2023-07-20T05:27:15;7.78;;;6.78;;
57828;SDS011;43657;52.698;6.314;2023-07-20T05:29:44;7.20;;;6.50;;
57828;SDS011;43657;52.698;6.314;2023-07-20T05:32:11;6.07;;;5.57;;
57828;SDS011;43657;52.698;6.314;2023-07-20T05:34:37;5.95;;;5.45;;
57828;SDS011;43657;52.698;6.314;2023-07-20T05:37:03;6.00;;;4.40;;
57828;SDS011;43657;52.698;6.314;2023-07-20T05:39:29;4.97;;;4.57;;
57828;SDS011;43657;52.698;6.314;2023-07-20T05:41:54;5.15;;;4.65;;
57828;SDS011;43657;52.698;6.314;2023-07-20T05:44:26;4.93;;;4.22;;
57828;SDS011;43657;52.698;6.314;2023-07-20T05:47:36;4.57;;;4.18;;
57828;SDS011;43657;52.698;6.314;2023-07-20T05:50:52;4.53;;;4.03;;
57828;SDS011;43657;52.698;6.314;2023-07-20T05:53:47;4.97;;;4.25;;
57828;SDS011;43657;52.698;6.314;2023-07-20T06:11:38;5.57;;;5.03;;
57828;SDS011;43657;52.698;6.314;2023-07-20T06:14:04;6.13;;;4.75;;
57828;SDS011;43657;52.698;6.314;2023-07-20T06:16:30;5.03;;;4.50;;
57828;SDS011;43657;52.698;6.314;2023-07-20T06:18:56;5.32;;;4.82;;
57828;SDS011;43657;52.698;6.314;2023-07-20T06:21:22;5.55;;;5.05;;
57828;SDS011;43657;52.698;6.314;2023-07-20T06:23:47;6.57;;;5.70;;
57828;SDS011;43657;52.698;6.314;2023-07-20T06:26:13;6.07;;;5.57;;
57828;SDS011;43657;52.698;6.314;2023-07-20T06:32:27;7.22;;;6.38;;
57828;SDS011;43657;52.698;6.314;2023-07-20T06:34:53;6.78;;;5.60;;
57828;SDS011;43657;52.698;6.314;2023-07-20T06:37:18;7.05;;;6.00;;
57828;SDS011;43657;52.698;6.314;2023-07-20T06:39:45;5.63;;;5.13;;
57828;SDS011;43657;52.698;6.314;2023-07-20T06:42:11;6.15;;;5.57;;
57828;SDS011;43657;52.698;6.314;2023-07-20T06:44:36;6.72;;;6.15;;
57828;SDS011;43657;52.698;6.314;2023-07-20T06:47:02;5.30;;;4.85;;
57828;SDS011;43657;52.698;6.314;2023-07-20T06:49:28;6.22;;;5.63;;
57828;SDS011;43657;52.698;6.314;2023-07-20T06:51:53;6.13;;;5.50;;
57828;SDS011;43657;52.698;6.314;2023-07-20T06:54:19;5.75;;;5.13;;
57828;SDS011;43657;52.698;6.314;2023-07-20T06:56:45;5.80;;;4.75;;
57828;SDS011;43657;52.698;6.314;2023-07-20T06:59:11;6.30;;;3.55;;
57828;SDS011;43657;52.698;6.314;2023-07-20T07:01:36;3.97;;;3.60;;
57828;SDS011;43657;52.698;6.314;2023-07-20T07:04:02;2.70;;;2.20;;
57828;SDS011;43657;52.698;6.314;2023-07-20T07:06:28;4.75;;;3.72;;
57828;SDS011;43657;52.698;6.314;2023-07-20T07:08:54;3.83;;;3.03;;
57828;SDS011;43657;52.698;6.314;2023-07-20T07:11:20;3.70;;;3.03;;
57828;SDS011;43657;52.698;6.314;2023-07-20T07:13:46;3.17;;;2.88;;
57828;SDS011;43657;52.698;6.314;2023-07-20T07:16:14;2.72;;;2.53;;
57828;SDS011;43657;52.698;6.314;2023-07-20T07:18:43;4.70;;;3.33;;
57828;SDS011;43657;52.698;6.314;2023-07-20T07:21:09;3.92;;;3.53;;
57828;SDS011;43657;52.698;6.314;2023-07-20T07:23:35;3.80;;;1.70;;
57828;SDS011;43657;52.698;6.314;2023-07-20T07:26:00;3.20;;;1.42;;
57828;SDS011;43657;52.698;6.314;2023-07-20T07:28:28;3.35;;;2.38;;
57828;SDS011;43657;52.698;6.314;2023-07-20T07:30:54;2.90;;;2.25;;
57828;SDS011;43657;52.698;6.314;2023-07-20T07:33:21;3.75;;;1.92;;
57828;SDS011;43657;52.698;6.314;2023-07-20T07:35:49;3.50;;;2.65;;
57828;SDS011;43657;52.698;6.314;2023-07-20T07:38:16;3.05;;;2.17;;
57828;SDS011;43657;52.698;6.314;2023-07-20T07:40:42;3.35;;;2.00;;
57828;SDS011;43657;52.698;6.314;2023-07-20T07:43:07;3.08;;;1.70;;
57828;SDS011;43657;52.698;6.314;2023-07-20T07:45:34;2.22;;;1.55;;
57828;SDS011;43657;52.698;6.314;2023-07-20T07:48:04;3.70;;;1.90;;
57828;SDS011;43657;52.698;6.314;2023-07-20T07:50:30;2.78;;;2.28;;
57828;SDS011;43657;52.698;6.314;2023-07-20T07:52:56;3.08;;;1.42;;
57828;SDS011;43657;52.698;6.314;2023-07-20T07:55:21;3.45;;;2.35;;
57828;SDS011;43657;52.698;6.314;2023-07-20T07:57:47;3.45;;;1.83;;
57828;SDS011;43657;52.698;6.314;2023-07-20T08:00:13;3.97;;;1.60;;
57828;SDS011;43657;52.698;6.314;2023-07-20T08:02:40;2.88;;;1.63;;
57828;SDS011;43657;52.698;6.314;2023-07-20T08:05:07;2.65;;;1.70;;
57828;SDS011;43657;52.698;6.314;2023-07-20T08:07:32;2.78;;;2.05;;
57828;SDS011;43657;52.698;6.314;2023-07-20T08:09:58;3.97;;;2.00;;
57828;SDS011;43657;52.698;6.314;2023-07-20T08:12:25;2.40;;;2.00;;
57828;SDS011;43657;52.698;6.314;2023-07-20T08:14:51;3.75;;;1.70;;
57828;SDS011;43657;52.698;6.314;2023-07-20T08:17:17;2.88;;;1.88;;
57828;SDS011;43657;52.698;6.314;2023-07-20T08:19:43;2.05;;;1.85;;
57828;SDS011;43657;52.698;6.314;2023-07-20T08:22:09;3.90;;;2.65;;
57828;SDS011;43657;52.698;6.314;2023-07-20T08:24:35;3.42;;;2.10;;
57828;SDS011;43657;52.698;6.314;2023-07-20T08:27:04;2.13;;;1.80;;
57828;SDS011;43657;52.698;6.314;2023-07-20T08:29:30;2.80;;;2.17;;
57828;SDS011;43657;52.698;6.314;2023-07-20T08:31:56;5.93;;;2.00;;
57828;SDS011;43657;52.698;6.314;2023-07-20T08:34:21;2.92;;;1.85;;
57828;SDS011;43657;52.698;6.314;2023-07-20T08:36:47;2.60;;;1.60;;
57828;SDS011;43657;52.698;6.314;2023-07-20T08:39:12;3.03;;;1.60;;
57828;SDS011;43657;52.698;6.314;2023-07-20T08:41:38;2.35;;;1.40;;
57828;SDS011;43657;52.698;6.314;2023-07-20T08:44:04;2.53;;;1.85;;
57828;SDS011;43657;52.698;6.314;2023-07-20T08:46:30;4.50;;;1.40;;
57828;SDS011;43657;52.698;6.314;2023-07-20T08:48:56;2.13;;;1.60;;
57828;SDS011;43657;52.698;6.314;2023-07-20T08:51:23;3.50;;;2.17;;
57828;SDS011;43657;52.698;6.314;2023-07-20T08:53:50;1.70;;;1.48;;
57828;SDS011;43657;52.698;6.314;2023-07-20T08:56:17;2.35;;;1.55;;
57828;SDS011;43657;52.698;6.314;2023-07-20T08:58:44;2.33;;;1.50;;
57828;SDS011;43657;52.698;6.314;2023-07-20T09:01:11;1.95;;;1.50;;
57828;SDS011;43657;52.698;6.314;2023-07-20T09:03:38;3.50;;;1.58;;
57828;SDS011;43657;52.698;6.314;2023-07-20T09:06:05;2.47;;;1.42;;
57828;SDS011;43657;52.698;6.314;2023-07-20T09:08:30;2.35;;;1.27;;
57828;SDS011;43657;52.698;6.314;2023-07-20T09:10:56;2.30;;;1.20;;
57828;SDS011;43657;52.698;6.314;2023-07-20T09:13:22;2.80;;;1.30;;
57828;SDS011;43657;52.698;6.314;2023-07-20T09:15:53;3.13;;;1.25;;
57828;SDS011;43657;52.698;6.314;2023-07-20T09:18:38;1.40;;;1.05;;
57828;SDS011;43657;52.698;6.314;2023-07-20T09:21:04;2.47;;;1.23;;
57828;SDS011;43657;52.698;6.314;2023-07-20T09:23:37;2.50;;;1.13;;
57828;SDS011;43657;52.698;6.314;2023-07-20T09:26:09;1.90;;;1.00;;
57828;SDS011;43657;52.698;6.314;2023-07-20T09:28:42;2.72;;;1.23;;
57828;SDS011;43657;52.698;6.314;2023-07-20T09:31:16;3.00;;;1.20;;
57828;SDS011;43657;52.698;6.314;2023-07-20T09:33:43;2.17;;;1.10;;
57828;SDS011;43657;52.698;6.314;2023-07-20T09:36:10;2.72;;;1.25;;
57828;SDS011;43657;52.698;6.314;2023-07-20T09:38:39;1.60;;;1.02;;
57828;SDS011;43657;52.698;6.314;2023-07-20T09:41:06;2.40;;;0.90;;
57828;SDS011;43657;52.698;6.314;2023-07-20T09:43:32;2.15;;;0.80;;
57828;SDS011;43657;52.698;6.314;2023-07-20T09:45:59;1.67;;;0.90;;
57828;SDS011;43657;52.698;6.314;2023-07-20T09:48:25;2.80;;;0.80;;
57828;SDS011;43657;52.698;6.314;2023-07-20T09:50:51;1.73;;;0.95;;
57828;SDS011;43657;52.698;6.314;2023-07-20T09:53:19;1.73;;;0.93;;
57828;SDS011;43657;52.698;6.314;2023-07-20T09:55:45;2.15;;;1.00;;
57828;SDS011;43657;52.698;6.314;2023-07-20T09:58:12;2.28;;;0.88;;
57828;SDS011;43657;52.698;6.314;2023-07-20T10:00:39;1.23;;;0.80;;
57828;SDS011;43657;52.698;6.314;2023-07-20T10:03:10;2.17;;;1.02;;
57828;SDS011;43657;52.698;6.314;2023-07-20T10:05:39;2.55;;;1.13;;
57828;SDS011;43657;52.698;6.314;2023-07-20T10:08:09;2.63;;;0.90;;
57828;SDS011;43657;52.698;6.314;2023-07-20T10:10:37;2.55;;;0.90;;
57828;SDS011;43657;52.698;6.314;2023-07-20T10:13:05;3.58;;;1.10;;
57828;SDS011;43657;52.698;6.314;2023-07-20T10:15:50;1.95;;;1.33;;
57828;SDS011;43657;52.698;6.314;2023-07-20T10:21:10;8.98;;;2.65;;
57828;SDS011;43657;52.698;6.314;2023-07-20T10:23:37;20.15;;;3.65;;
57828;SDS011;43657;52.698;6.314;2023-07-20T10:26:04;16.98;;;3.45;;
57828;SDS011;43657;52.698;6.314;2023-07-20T10:28:30;22.95;;;5.07;;
57828;SDS011;43657;52.698;6.314;2023-07-20T10:30:56;18.77;;;4.43;;
57828;SDS011;43657;52.698;6.314;2023-07-20T10:33:22;6.72;;;3.03;;
57828;SDS011;43657;52.698;6.314;2023-07-20T10:35:55;5.43;;;3.13;;
57828;SDS011;43657;52.698;6.314;2023-07-20T10:41:27;3.30;;;2.30;;
57828;SDS011;43657;52.698;6.314;2023-07-20T10:43:58;3.35;;;2.28;;
57828;SDS011;43657;52.698;6.314;2023-07-20T10:49:04;4.43;;;3.03;;
57828;SDS011;43657;52.698;6.314;2023-07-20T10:51:38;4.30;;;3.10;;
57828;SDS011;43657;52.698;6.314;2023-07-20T10:56:41;4.07;;;3.35;;
57828;SDS011;43657;52.698;6.314;2023-07-20T10:59:20;2.80;;;1.77;;
57828;SDS011;43657;52.698;6.314;2023-07-20T11:02:05;3.70;;;2.17;;
57828;SDS011;43657;52.698;6.314;2023-07-20T11:04:38;2.35;;;1.50;;
57828;SDS011;43657;52.698;6.314;2023-07-20T11:09:37;2.50;;;2.03;;
57828;SDS011;43657;52.698;6.314;2023-07-20T11:14:58;3.75;;;2.20;;
57828;SDS011;43657;52.698;6.314;2023-07-20T11:17:30;3.78;;;1.98;;
57828;SDS011;43657;52.698;6.314;2023-07-20T11:22:23;2.33;;;1.90;;
57828;SDS011;43657;52.698;6.314;2023-07-20T11:24:49;4.28;;;2.50;;
57828;SDS011;43657;52.698;6.314;2023-07-20T11:27:15;2.58;;;1.90;;
57828;SDS011;43657;52.698;6.314;2023-07-20T11:29:41;2.75;;;2.20;;
57828;SDS011;43657;52.698;6.314;2023-07-20T11:32:06;4.72;;;2.53;;
57828;SDS011;43657;52.698;6.314;2023-07-20T11:34:33;3.78;;;2.10;;
57828;SDS011;43657;52.698;6.314;2023-07-20T11:37:00;2.65;;;1.90;;
57828;SDS011;43657;52.698;6.314;2023-07-20T11:39:26;2.90;;;1.70;;
57828;SDS011;43657;52.698;6.314;2023-07-20T11:41:57;3.42;;;1.52;;
57828;SDS011;43657;52.698;6.314;2023-07-20T11:44:26;2.45;;;1.60;;
57828;SDS011;43657;52.698;6.314;2023-07-20T11:47:04;3.28;;;1.77;;
57828;SDS011;43657;52.698;6.314;2023-07-20T11:52:06;2.72;;;1.90;;
57828;SDS011;43657;52.698;6.314;2023-07-20T11:54:34;2.50;;;1.83;;
57828;SDS011;43657;52.698;6.314;2023-07-20T11:57:01;3.92;;;2.22;;
57828;SDS011;43657;52.698;6.314;2023-07-20T11:59:27;3.33;;;2.05;;
57828;SDS011;43657;52.698;6.314;2023-07-20T12:01:52;2.90;;;2.00;;
57828;SDS011;43657;52.698;6.314;2023-07-20T12:04:18;2.85;;;1.92;;
57828;SDS011;43657;52.698;6.314;2023-07-20T12:06:45;2.20;;;1.77;;
57828;SDS011;43657;52.698;6.314;2023-07-20T12:09:15;3.42;;;2.22;;
57828;SDS011;43657;52.698;6.314;2023-07-20T12:11:42;4.57;;;2.22;;
57828;SDS011;43657;52.698;6.314;2023-07-20T12:14:10;3.65;;;1.75;;
57828;SDS011;43657;52.698;6.314;2023-07-20T12:16:36;1.95;;;1.85;;
57828;SDS011;43657;52.698;6.314;2023-07-20T12:19:06;3.92;;;1.80;;
57828;SDS011;43657;52.698;6.314;2023-07-20T12:21:38;3.22;;;1.80;;
57828;SDS011;43657;52.698;6.314;2023-07-20T12:24:07;3.13;;;1.73;;
57828;SDS011;43657;52.698;6.314;2023-07-20T12:26:37;1.58;;;1.30;;
57828;SDS011;43657;52.698;6.314;2023-07-20T12:29:03;2.65;;;1.40;;
57828;SDS011;43657;52.698;6.314;2023-07-20T12:31:31;2.78;;;1.30;;
57828;SDS011;43657;52.698;6.314;2023-07-20T12:34:20;1.67;;;1.15;;
57828;SDS011;43657;52.698;6.314;2023-07-20T12:36:56;1.90;;;1.02;;
57828;SDS011;43657;52.698;6.314;2023-07-20T12:39:44;3.20;;;1.45;;
57828;SDS011;43657;52.698;6.314;2023-07-20T12:42:44;3.42;;;1.55;;
57828;SDS011;43657;52.698;6.314;2023-07-20T12:45:25;2.65;;;1.40;;
57828;SDS011;43657;52.698;6.314;2023-07-20T12:48:07;1.83;;;1.10;;
57828;SDS011;43657;52.698;6.314;2023-07-20T12:50:52;3.08;;;1.30;;
57828;SDS011;43657;52.698;6.314;2023-07-20T12:53:48;2.08;;;1.10;;
57828;SDS011;43657;52.698;6.314;2023-07-20T12:56:34;1.67;;;1.20;;
57828;SDS011;43657;52.698;6.314;2023-07-20T12:59:09;1.13;;;0.93;;
57828;SDS011;43657;52.698;6.314;2023-07-20T13:02:09;2.28;;;1.40;;
57828;SDS011;43657;52.698;6.314;2023-07-20T13:04:52;2.60;;;1.27;;
57828;SDS011;43657;52.698;6.314;2023-07-20T13:07:33;1.30;;;1.10;;
57828;SDS011;43657;52.698;6.314;2023-07-20T13:10:13;3.67;;;1.10;;
57828;SDS011;43657;52.698;6.314;2023-07-20T13:12:53;1.35;;;0.88;;
57828;SDS011;43657;52.698;6.314;2023-07-20T13:15:32;1.95;;;0.80;;
57828;SDS011;43657;52.698;6.314;2023-07-20T13:18:35;1.58;;;0.90;;
57828;SDS011;43657;52.698;6.314;2023-07-20T13:21:09;1.52;;;0.82;;
57828;SDS011;43657;52.698;6.314;2023-07-20T13:23:49;1.85;;;0.93;;
57828;SDS011;43657;52.698;6.314;2023-07-20T13:26:39;1.35;;;0.80;;
57828;SDS011;43657;52.698;6.314;2023-07-20T13:29:50;1.60;;;0.80;;
57828;SDS011;43657;52.698;6.314;2023-07-20T13:32:19;1.08;;;0.80;;
57828;SDS011;43657;52.698;6.314;2023-07-20T13:35:17;0.95;;;0.80;;
57828;SDS011;43657;52.698;6.314;2023-07-20T13:38:10;2.40;;;0.93;;
57828;SDS011;43657;52.698;6.314;2023-07-20T13:40:41;1.00;;;0.73;;
57828;SDS011;43657;52.698;6.314;2023-07-20T13:43:26;0.88;;;0.80;;
57828;SDS011;43657;52.698;6.314;2023-07-20T13:46:00;3.80;;;0.93;;
57828;SDS011;43657;52.698;6.314;2023-07-20T13:48:34;1.10;;;1.00;;
57828;SDS011;43657;52.698;6.314;2023-07-20T13:51:05;1.92;;;0.90;;
57828;SDS011;43657;52.698;6.314;2023-07-20T13:53:56;2.33;;;1.00;;
57828;SDS011;43657;52.698;6.314;2023-07-20T14:00:21;1.40;;;0.80;;
57828;SDS011;43657;52.698;6.314;2023-07-20T14:03:08;2.20;;;0.90;;
57828;SDS011;43657;52.698;6.314;2023-07-20T14:05:48;1.65;;;0.93;;
57828;SDS011;43657;52.698;6.314;2023-07-20T14:08:33;2.38;;;1.05;;
57828;SDS011;43657;52.698;6.314;2023-07-20T14:11:16;1.80;;;0.80;;
57828;SDS011;43657;52.698;6.314;2023-07-20T14:14:15;2.55;;;0.70;;
57828;SDS011;43657;52.698;6.314;2023-07-20T14:17:12;1.30;;;0.70;;
57828;SDS011;43657;52.698;6.314;2023-07-20T14:20:25;1.33;;;0.80;;
57828;SDS011;43657;52.698;6.314;2023-07-20T14:23:52;1.27;;;0.82;;
57828;SDS011;43657;52.698;6.314;2023-07-20T14:26:33;0.77;;;0.70;;
57828;SDS011;43657;52.698;6.314;2023-07-20T14:29:09;0.50;;;0.50;;
57828;SDS011;43657;52.698;6.314;2023-07-20T14:32:30;2.85;;;0.60;;
57828;SDS011;43657;52.698;6.314;2023-07-20T14:35:24;0.93;;;0.50;;
57828;SDS011;43657;52.698;6.314;2023-07-20T14:38:05;1.80;;;0.70;;
57828;SDS011;43657;52.698;6.314;2023-07-20T14:41:04;1.05;;;0.60;;
57828;SDS011;43657;52.698;6.314;2023-07-20T14:43:54;1.17;;;0.50;;
57828;SDS011;43657;52.698;6.314;2023-07-20T14:46:43;1.00;;;0.60;;
57828;SDS011;43657;52.698;6.314;2023-07-20T14:52:39;2.28;;;0.70;;
57828;SDS011;43657;52.698;6.314;2023-07-20T14:55:23;1.63;;;0.77;;
57828;SDS011;43657;52.698;6.314;2023-07-20T14:58:18;1.77;;;0.70;;
57828;SDS011;43657;52.698;6.314;2023-07-20T15:00:53;1.20;;;0.80;;
57828;SDS011;43657;52.698;6.314;2023-07-20T15:03:25;1.10;;;0.70;;
57828;SDS011;43657;52.698;6.314;2023-07-20T15:06:02;1.60;;;0.65;;
57828;SDS011;43657;52.698;6.314;2023-07-20T15:08:37;0.95;;;0.82;;
57828;SDS011;43657;52.698;6.314;2023-07-20T15:14:20;1.88;;;0.70;;
57828;SDS011;43657;52.698;6.314;2023-07-20T15:17:08;1.95;;;0.68;;
57828;SDS011;43657;52.698;6.314;2023-07-20T15:19:46;1.55;;;0.90;;
57828;SDS011;43657;52.698;6.314;2023-07-20T15:22:30;1.08;;;0.63;;
57828;SDS011;43657;52.698;6.314;2023-07-20T15:25:03;0.88;;;0.73;;
57828;SDS011;43657;52.698;6.314;2023-07-20T15:28:10;2.03;;;0.90;;
57828;SDS011;43657;52.698;6.314;2023-07-20T15:30:57;1.58;;;0.70;;
57828;SDS011;43657;52.698;6.314;2023-07-20T15:33:31;1.55;;;0.75;;
57828;SDS011;43657;52.698;6.314;2023-07-20T15:36:22;1.08;;;0.82;;
57828;SDS011;43657;52.698;6.314;2023-07-20T15:38:52;1.37;;;0.70;;
57828;SDS011;43657;52.698;6.314;2023-07-20T15:41:23;1.38;;;0.82;;
57828;SDS011;43657;52.698;6.314;2023-07-20T15:43:54;1.58;;;0.80;;
57828;SDS011;43657;52.698;6.314;2023-07-20T15:48:54;1.75;;;1.10;;
57828;SDS011;43657;52.698;6.314;2023-07-20T15:51:32;1.02;;;0.95;;
57828;SDS011;43657;52.698;6.314;2023-07-20T15:54:15;1.17;;;0.80;;
57828;SDS011;43657;52.698;6.314;2023-07-20T15:56:49;0.88;;;0.80;;
57828;SDS011;43657;52.698;6.314;2023-07-20T16:02:55;3.40;;;1.20;;
57828;SDS011;43657;52.698;6.314;2023-07-20T16:05:33;2.45;;;1.10;;